Time;durP1;ratioP1;P1;durP2;ratioP2;P2;SDS_P1;SDS_P2;PMS_P1;PMS_P2;Temp;Humidity;BMP_temperature;BMP_pressure;BME280_temperature;BME280_humidity;BME280_pressure;Samples;Min_cycle;Max_cycle;Signal;HPM_P1;HPM_P2
2023/10/17 00:02:11;;;;;;;15.75;5.85;;;2.10;99.90;;;;;;5088828;28;20120;-84
2023/10/17 00:04:41;;;;;;;12.68;5.57;;;2.10;99.90;;;;;;5060483;28;20055;-84
2023/10/17 00:07:08;;;;;;;11.68;5.70;;;2.10;99.90;;;;;;5083687;28;20051;-84
2023/10/17 00:09:37;;;;;;;7.82;4.75;;;2.10;99.90;;;;;;5073568;28;20345;-83
2023/10/17 00:17:18;;;;;;;10.00;5.75;;;2.20;99.90;;;;;;5086468;28;20031;-84
2023/10/17 00:19:45;;;;;;;9.85;5.85;;;2.30;99.90;;;;;;5088952;28;20023;-83
2023/10/17 00:22:17;;;;;;;13.25;4.93;;;2.40;99.90;;;;;;5101922;28;20149;-84
2023/10/17 00:24:46;;;;;;;12.40;5.50;;;2.40;99.90;;;;;;5067970;28;20023;-85
2023/10/17 00:27:12;;;;;;;13.55;6.18;;;2.40;99.90;;;;;;5065290;28;20054;-84
2023/10/17 00:29:38;;;;;;;11.40;5.53;;;2.40;99.90;;;;;;5069062;28;20031;-84
2023/10/17 00:32:04;;;;;;;11.02;6.05;;;2.50;99.90;;;;;;5084364;28;20050;-85
2023/10/17 00:34:30;;;;;;;19.17;6.22;;;2.60;99.90;;;;;;5060234;28;20078;-83
2023/10/17 00:37:37;;;;;;;14.80;6.20;;;2.70;99.90;;;;;;5088478;28;20024;-83
2023/10/17 00:40:05;;;;;;;10.20;6.07;;;2.80;99.90;;;;;;5071755;28;20032;-84
2023/10/17 00:42:34;;;;;;;16.08;6.85;;;2.80;99.90;;;;;;5106901;28;20024;-84
2023/10/17 00:45:00;;;;;;;11.57;5.65;;;2.80;99.90;;;;;;5099299;28;20033;-83
2023/10/17 00:47:27;;;;;;;12.05;6.13;;;2.80;99.90;;;;;;5068456;28;20090;-84
2023/10/17 00:49:53;;;;;;;10.63;5.18;;;2.70;99.90;;;;;;5088595;28;20024;-84
2023/10/17 00:52:24;;;;;;;14.35;7.05;;;2.70;99.90;;;;;;5112167;27;20044;-84
2023/10/17 00:54:53;;;;;;;10.80;5.95;;;2.70;99.90;;;;;;5088098;28;20115;-84
2023/10/17 00:57:29;;;;;;;10.95;5.75;;;2.70;99.90;;;;;;5096374;28;20505;-84
2023/10/17 00:59:56;;;;;;;14.70;6.22;;;2.60;99.90;;;;;;5088806;28;20024;-84
2023/10/17 01:02:24;;;;;;;22.23;7.75;;;2.60;99.90;;;;;;5072192;28;20031;-84
2023/10/17 01:08:02;;;;;;;12.95;6.32;;;2.50;99.90;;;;;;5098042;28;20144;-84
2023/10/17 01:10:28;;;;;;;13.45;6.70;;;2.50;99.90;;;;;;5088823;28;20038;-84
2023/10/17 01:12:56;;;;;;;21.25;6.65;;;2.50;99.90;;;;;;5116798;27;20019;-84
2023/10/17 01:15:28;;;;;;;15.18;6.13;;;2.40;99.90;;;;;;5104636;28;20031;-84
2023/10/17 01:17:57;;;;;;;13.65;5.70;;;2.40;99.90;;;;;;5083109;28;20059;-84
2023/10/17 01:20:23;;;;;;;12.90;6.15;;;2.30;99.90;;;;;;5087963;28;20650;-84
2023/10/17 01:22:49;;;;;;;12.82;6.47;;;2.20;99.90;;;;;;5060355;28;20034;-84
2023/10/17 01:25:49;;;;;;;12.18;6.10;;;2.20;99.90;;;;;;5085320;28;20027;-84
2023/10/17 01:28:07;;;;;;;12.32;6.35;;;2.20;99.90;;;;;;5079839;28;20177;-84
2023/10/17 01:30:33;;;;;;;13.73;6.32;;;2.20;99.90;;;;;;5097885;28;20062;-84
2023/10/17 01:32:59;;;;;;;20.85;6.65;;;2.00;99.90;;;;;;5066444;28;20035;-84
2023/10/17 01:35:25;;;;;;;14.32;6.63;;;2.10;99.90;;;;;;5061310;28;20036;-84
2023/10/17 01:37:52;;;;;;;11.75;5.75;;;2.10;99.90;;;;;;5084094;28;20102;-83
2023/10/17 01:40:27;;;;;;;17.85;6.28;;;2.00;99.90;;;;;;5060622;28;20082;-84
2023/10/17 01:42:54;;;;;;;13.18;6.35;;;2.00;99.90;;;;;;5085513;28;20046;-84
2023/10/17 01:45:22;;;;;;;13.45;5.40;;;2.10;99.90;;;;;;5061267;28;20028;-83
2023/10/17 01:47:51;;;;;;;12.45;5.72;;;2.00;99.90;;;;;;5065031;28;20054;-84
2023/10/17 01:50:18;;;;;;;14.32;5.70;;;2.00;99.90;;;;;;5076026;28;20028;-84
2023/10/17 01:52:45;;;;;;;10.20;5.65;;;2.00;99.90;;;;;;5067816;28;20383;-84
2023/10/17 01:55:14;;;;;;;8.38;4.60;;;2.00;99.90;;;;;;5062425;28;20394;-83
2023/10/17 01:57:47;;;;;;;9.50;5.20;;;2.00;99.90;;;;;;5077004;28;20456;-84
2023/10/17 02:00:37;;;;;;;14.35;6.38;;;1.90;99.90;;;;;;5063440;28;20028;-84
2023/10/17 02:03:05;;;;;;;10.93;5.50;;;1.90;99.90;;;;;;5113203;27;20472;-84
2023/10/17 02:05:32;;;;;;;14.18;5.63;;;1.90;99.90;;;;;;5075742;28;20019;-84
2023/10/17 02:07:59;;;;;;;14.35;5.32;;;1.90;99.90;;;;;;5087091;28;20106;-84
2023/10/17 02:10:25;;;;;;;11.20;5.95;;;1.80;99.90;;;;;;5070284;28;20123;-84
2023/10/17 02:12:54;;;;;;;11.95;5.10;;;1.80;99.90;;;;;;5098706;28;20032;-84
2023/10/17 02:15:20;;;;;;;12.20;5.30;;;1.80;99.90;;;;;;5069843;28;20031;-83
2023/10/17 02:17:47;;;;;;;13.68;5.28;;;1.90;99.90;;;;;;5058295;28;20051;-84
2023/10/17 02:22:54;;;;;;;12.10;5.25;;;1.90;99.90;;;;;;5090359;28;20475;-83
2023/10/17 02:25:28;;;;;;;11.48;5.60;;;1.90;99.90;;;;;;5082418;28;20028;-84
2023/10/17 02:27:53;;;;;;;10.40;5.55;;;1.90;99.90;;;;;;5079644;28;20704;-84
2023/10/17 02:30:20;;;;;;;12.05;5.20;;;2.00;99.90;;;;;;5094299;28;20038;-84
2023/10/17 02:32:53;;;;;;;9.70;5.10;;;1.90;99.90;;;;;;5064418;28;20035;-84
2023/10/17 02:35:22;;;;;;;11.23;5.22;;;2.00;99.90;;;;;;5079024;28;20036;-83
2023/10/17 02:37:48;;;;;;;11.23;4.93;;;1.90;99.90;;;;;;5083408;28;20034;-84
2023/10/17 02:40:20;;;;;;;12.27;5.30;;;1.90;99.90;;;;;;5096999;28;20554;-84
2023/10/17 02:42:47;;;;;;;10.32;5.75;;;1.90;99.90;;;;;;5079782;28;20016;-84
2023/10/17 02:45:17;;;;;;;11.77;5.28;;;1.80;99.90;;;;;;5058318;28;20024;-84
2023/10/17 02:47:44;;;;;;;10.57;5.65;;;1.80;99.90;;;;;;5066946;28;20502;-84
2023/10/17 02:50:22;;;;;;;12.27;5.10;;;1.80;99.90;;;;;;5112337;28;20081;-84
2023/10/17 02:52:51;;;;;;;10.13;5.55;;;1.80;99.90;;;;;;5078951;28;20024;-83
2023/10/17 02:55:24;;;;;;;7.93;5.35;;;1.90;99.90;;;;;;5084917;28;20028;-84
2023/10/17 02:57:53;;;;;;;9.02;4.78;;;1.90;99.90;;;;;;5086551;28;20035;-84
2023/10/17 03:00:23;;;;;;;12.02;5.47;;;1.80;99.90;;;;;;5077988;28;20483;-83
2023/10/17 03:02:52;;;;;;;12.90;5.10;;;1.80;99.90;;;;;;5088666;28;20491;-84
2023/10/17 03:05:18;;;;;;;13.35;5.00;;;1.90;99.90;;;;;;5081838;28;20674;-83
2023/10/17 03:07:49;;;;;;;10.30;4.95;;;1.90;99.90;;;;;;5090661;28;20031;-84
2023/10/17 03:10:39;;;;;;;9.35;4.97;;;1.90;99.90;;;;;;5074084;28;20054;-84
2023/10/17 03:13:23;;;;;;;15.80;6.03;;;2.00;99.90;;;;;;5085612;28;20055;-83
2023/10/17 03:16:01;;;;;;;8.95;4.95;;;2.00;99.90;;;;;;5095244;28;20032;-84
2023/10/17 03:18:27;;;;;;;10.85;5.20;;;2.00;99.90;;;;;;5107978;27;20051;-84
2023/10/17 03:20:53;;;;;;;14.07;4.82;;;2.00;99.90;;;;;;5118048;27;20032;-84
2023/10/17 03:23:29;;;;;;;9.93;5.20;;;2.00;99.90;;;;;;5106882;28;20106;-84
2023/10/17 03:26:00;;;;;;;;;;;1.90;99.90;;;;;;5119222;27;20031;-84
2023/10/17 03:28:27;;;;;;;9.05;5.40;;;1.90;99.90;;;;;;5107572;27;20371;-84
2023/10/17 03:30:54;;;;;;;18.00;5.13;;;1.80;99.90;;;;;;5069007;28;20031;-84
2023/10/17 03:33:26;;;;;;;12.98;5.28;;;1.80;99.90;;;;;;5078767;28;20043;-83
2023/10/17 03:39:19;;;;;;;12.65;6.13;;;1.90;99.90;;;;;;5091211;28;20032;-84
2023/10/17 03:41:45;;;;;;;8.65;5.43;;;2.00;99.90;;;;;;5066397;28;20024;-84
2023/10/17 03:44:15;;;;;;;9.88;5.47;;;2.00;99.90;;;;;;5089391;28;20028;-84
2023/10/17 03:46:48;;;;;;;11.40;6.20;;;2.10;99.90;;;;;;5084465;28;20028;-83
2023/10/17 03:49:18;;;;;;;11.82;6.38;;;2.10;99.90;;;;;;5067540;28;20027;-84
2023/10/17 03:51:46;;;;;;;15.00;5.78;;;2.10;99.90;;;;;;5086922;28;20024;-84
2023/10/17 03:54:17;;;;;;;11.13;4.97;;;2.20;99.90;;;;;;5089229;28;20647;-84
2023/10/17 03:56:49;;;;;;;12.73;6.13;;;2.30;99.90;;;;;;5077861;28;20028;-84
2023/10/17 04:01:48;;;;;;;12.27;5.93;;;2.20;99.90;;;;;;5079205;28;20111;-83
2023/10/17 04:04:18;;;;;;;12.77;5.60;;;2.30;99.90;;;;;;5072059;28;20034;-84
2023/10/17 04:06:48;;;;;;;12.82;6.35;;;2.30;99.90;;;;;;5068658;28;20111;-84
2023/10/17 04:09:26;;;;;;;12.70;5.35;;;2.40;99.90;;;;;;5089536;28;20377;-85
2023/10/17 04:11:58;;;;;;;14.65;6.25;;;2.40;99.90;;;;;;5068953;28;20072;-84
2023/10/17 04:14:33;;;;;;;13.13;6.38;;;2.40;99.90;;;;;;5081681;28;20036;-84
2023/10/17 04:17:36;;;;;;;11.90;5.80;;;2.50;99.90;;;;;;5065738;28;20070;-84
2023/10/17 04:20:12;;;;;;;11.88;5.38;;;2.50;99.90;;;;;;5104658;28;20020;-83
2023/10/17 04:22:44;;;;;;;14.43;6.47;;;2.50;99.90;;;;;;5061310;28;20035;-84
2023/10/17 04:27:54;;;;;;;10.63;6.38;;;2.60;99.90;;;;;;5076981;28;20020;-83
2023/10/17 04:30:29;;;;;;;12.02;6.10;;;2.60;99.90;;;;;;5097209;28;20036;-83
2023/10/17 04:33:13;;;;;;;16.48;7.13;;;2.60;99.90;;;;;;5083744;28;20031;-84
2023/10/17 04:35:55;;;;;;;12.93;6.05;;;2.60;99.90;;;;;;5095798;28;20068;-84
2023/10/17 04:38:27;;;;;;;11.65;6.07;;;2.60;99.90;;;;;;5081645;28;20036;-84
2023/10/17 04:41:13;;;;;;;10.68;5.88;;;2.60;99.90;;;;;;5064659;28;20057;-84
2023/10/17 04:43:49;;;;;;;16.67;6.75;;;2.70;99.90;;;;;;5100065;28;20093;-83
2023/10/17 04:46:16;;;;;;;16.58;6.10;;;2.70;99.90;;;;;;5070916;28;20026;-84
2023/10/17 04:48:52;;;;;;;13.43;5.88;;;2.70;99.90;;;;;;5119502;27;20049;-84
2023/10/17 04:53:49;;;;;;;17.67;6.20;;;2.70;99.90;;;;;;5080482;28;20107;-83
2023/10/17 04:56:37;;;;;;;10.88;5.88;;;2.70;99.90;;;;;;5112454;27;20433;-83
2023/10/17 04:59:03;;;;;;;11.95;6.15;;;2.70;99.90;;;;;;5124855;27;20080;-84
2023/10/17 05:01:35;;;;;;;11.50;5.72;;;2.70;99.90;;;;;;5081344;28;20035;-84
2023/10/17 05:05:15;;;;;;;13.10;5.68;;;2.70;99.90;;;;;;5072105;28;20039;-83
2023/10/17 05:07:07;;;;;;;10.05;5.70;;;2.70;99.90;;;;;;5100458;27;20050;-84
2023/10/17 06:18:17;;;;;;;16.60;8.05;;;2.50;99.90;;;;;;5117189;27;20038;-84
2023/10/17 06:21:35;;;;;;;13.67;7.90;;;2.50;99.90;;;;;;5099686;28;20039;-84
2023/10/17 06:34:47;;;;;;;11.82;7.30;;;2.90;99.90;;;;;;5088282;28;20051;-84
2023/10/17 06:37:19;;;;;;;;;;;3.10;99.90;;;;;;5085388;28;20028;-84
2023/10/17 06:39:49;;;;;;;14.02;7.03;;;3.10;99.90;;;;;;5085284;28;19912;-84
2023/10/17 06:42:15;;;;;;;16.10;7.63;;;3.20;99.90;;;;;;5075700;28;20032;-84
2023/10/17 06:44:53;;;;;;;18.33;7.15;;;3.30;99.90;;;;;;5058349;28;20028;-84
2023/10/17 06:47:23;;;;;;;12.77;7.15;;;3.40;99.90;;;;;;5082915;28;20037;-84
2023/10/17 06:55:21;;;;;;;12.88;7.85;;;3.70;99.90;;;;;;5078317;28;20041;-84
2023/10/17 06:57:50;;;;;;;18.55;8.88;;;3.80;99.90;;;;;;5062861;28;20032;-85
2023/10/17 07:00:42;;;;;;;15.57;8.45;;;3.90;99.90;;;;;;5078039;28;20515;-84
2023/10/17 07:03:09;;;;;;;16.40;7.82;;;4.00;99.90;;;;;;5074440;28;20039;-84
2023/10/17 07:05:36;;;;;;;16.55;7.90;;;4.10;99.90;;;;;;5077218;28;20036;-85
2023/10/17 07:08:03;;;;;;;15.73;8.07;;;4.20;99.90;;;;;;5058264;28;20483;-85
2023/10/17 07:13:39;;;;;;;18.70;8.35;;;4.30;99.90;;;;;;5077124;28;20111;-85
2023/10/17 07:16:16;;;;;;;17.35;8.10;;;4.40;99.90;;;;;;5099772;28;20028;-84
2023/10/17 07:18:47;;;;;;;12.52;7.30;;;4.50;99.90;;;;;;5055396;28;20478;-84
2023/10/17 07:23:44;;;;;;;13.20;7.15;;;4.60;99.90;;;;;;5104041;27;20276;-84
2023/10/17 07:26:17;;;;;;;16.90;7.38;;;4.70;99.90;;;;;;5078693;28;20028;-84
2023/10/17 07:28:44;;;;;;;13.85;7.30;;;4.80;99.90;;;;;;5081535;28;20096;-84
2023/10/17 07:31:13;;;;;;;14.02;6.78;;;4.80;99.90;;;;;;5079683;28;20067;-85
2023/10/17 07:33:45;;;;;;;14.65;7.32;;;4.90;99.90;;;;;;5077825;28;20032;-84
2023/10/17 07:36:15;;;;;;;10.63;6.70;;;5.00;99.90;;;;;;5077880;28;20083;-84
2023/10/17 07:39:23;;;;;;;13.52;7.70;;;5.10;99.90;;;;;;5073455;28;20817;-84
2023/10/17 07:41:55;;;;;;;17.05;8.23;;;5.20;99.90;;;;;;5099612;28;20074;-84
2023/10/17 07:44:29;;;;;;;14.82;7.78;;;5.40;99.90;;;;;;5075013;28;20027;-84
2023/10/17 07:49:37;;;;;;;17.40;8.75;;;5.50;99.90;;;;;;5104148;28;20143;-84
2023/10/17 07:52:12;;;;;;;17.13;8.73;;;5.50;99.90;;;;;;5075314;28;20103;-85
2023/10/17 07:54:45;;;;;;;16.58;9.15;;;5.60;99.90;;;;;;5086280;28;20041;-85
2023/10/17 07:57:17;;;;;;;19.02;9.52;;;5.80;99.90;;;;;;5090211;28;20036;-84
2023/10/17 07:59:52;;;;;;;24.92;10.40;;;5.80;99.90;;;;;;5072950;28;20163;-84
2023/10/17 08:02:20;;;;;;;17.27;9.32;;;5.80;99.90;;;;;;5073080;28;20044;-84
2023/10/17 08:04:48;;;;;;;16.65;9.75;;;5.80;99.90;;;;;;5073332;28;20020;-84
2023/10/17 08:07:14;;;;;;;18.30;8.90;;;5.90;99.90;;;;;;5095804;28;20057;-83
2023/10/17 08:10:01;;;;;;;16.73;9.60;;;5.90;99.90;;;;;;5065970;28;20051;-84
2023/10/17 08:12:29;;;;;;;19.83;9.23;;;6.00;99.90;;;;;;5083397;28;20144;-84
2023/10/17 08:14:58;;;;;;;19.92;9.10;;;6.00;99.90;;;;;;5045227;28;20020;-85
2023/10/17 08:17:28;;;;;;;22.70;9.85;;;6.00;99.90;;;;;;5092725;28;20466;-85
2023/10/17 08:20:00;;;;;;;18.05;9.02;;;6.10;99.90;;;;;;5079621;28;20473;-85
2023/10/17 08:22:27;;;;;;;19.02;10.35;;;6.20;99.90;;;;;;5084739;28;20035;-84
2023/10/17 08:24:53;;;;;;;15.57;9.50;;;6.20;99.90;;;;;;5077727;28;20540;-84
2023/10/17 08:29:49;;;;;;;16.73;8.75;;;6.50;99.90;;;;;;5074595;28;20035;-84
2023/10/17 08:34:59;;;;;;;16.35;8.98;;;6.50;99.90;;;;;;5090070;28;20016;-85
2023/10/17 08:37:39;;;;;;;18.40;8.15;;;6.60;99.90;;;;;;5084243;28;20432;-84
2023/10/17 08:40:32;;;;;;;18.00;7.53;;;6.60;99.90;;;;;;5074728;28;20586;-85
2023/10/17 08:43:00;;;;;;;14.55;8.07;;;6.80;99.90;;;;;;5070972;28;20060;-84
2023/10/17 08:45:36;;;;;;;14.30;7.40;;;6.80;99.90;;;;;;5082894;28;20039;-84
2023/10/17 08:48:01;;;;;;;12.98;8.10;;;6.90;99.90;;;;;;5080774;28;20091;-84
2023/10/17 08:50:30;;;;;;;15.30;8.07;;;7.00;99.90;;;;;;5066566;28;20118;-84
2023/10/17 08:52:59;;;;;;;16.75;7.93;;;7.00;99.90;;;;;;5075380;28;20401;-84
2023/10/17 08:55:27;;;;;;;15.02;7.25;;;6.90;99.90;;;;;;5071905;28;20066;-85
2023/10/17 08:57:52;;;;;;;14.10;8.18;;;7.00;99.90;;;;;;5092323;28;20097;-85
2023/10/17 09:00:26;;;;;;;15.85;8.38;;;7.10;99.90;;;;;;5100526;28;20750;-84
2023/10/17 09:03:02;;;;;;;18.40;7.90;;;7.10;99.90;;;;;;5093385;28;20028;-84
2023/10/17 09:05:29;;;;;;;15.85;7.55;;;7.30;99.90;;;;;;5091257;28;20391;-85
2023/10/17 09:07:58;;;;;;;12.90;7.47;;;7.30;99.90;;;;;;5084805;28;20020;-85
2023/10/17 09:10:38;;;;;;;14.05;7.88;;;7.40;99.90;;;;;;5073855;28;20030;-85
2023/10/17 09:15:57;;;;;;;15.55;8.07;;;7.50;99.90;;;;;;5091505;28;20027;-84
2023/10/17 09:18:27;;;;;;;14.23;8.65;;;7.50;99.90;;;;;;5090668;28;20390;-84
2023/10/17 09:20:57;;;;;;;13.63;7.50;;;7.70;99.90;;;;;;5074896;28;20119;-85
2023/10/17 09:23:28;;;;;;;12.38;8.20;;;7.70;99.90;;;;;;5070756;28;20073;-84
2023/10/17 09:26:12;;;;;;;15.23;7.40;;;7.80;99.90;;;;;;5061668;28;20024;-85
2023/10/17 09:28:39;;;;;;;17.05;7.15;;;7.90;99.90;;;;;;5086165;28;20680;-85
2023/10/17 09:31:09;;;;;;;15.55;8.35;;;8.00;99.90;;;;;;5064075;28;20081;-85
2023/10/17 09:33:52;;;;;;;13.48;8.52;;;8.00;99.90;;;;;;5084557;28;20047;-85
2023/10/17 09:36:18;;;;;;;15.10;8.32;;;8.00;99.90;;;;;;5077972;28;20498;-85
2023/10/17 09:38:44;;;;;;;13.93;8.52;;;8.10;99.90;;;;;;5088343;28;20031;-85
2023/10/17 09:41:18;;;;;;;14.20;7.95;;;8.20;99.90;;;;;;5077553;28;20119;-85
2023/10/17 09:43:49;;;;;;;13.57;8.65;;;8.30;99.90;;;;;;5077208;28;20471;-84
2023/10/17 09:46:17;;;;;;;11.25;7.57;;;8.40;99.90;;;;;;5074701;28;20047;-85
2023/10/17 09:49:27;;;;;;;18.30;7.85;;;8.60;99.90;;;;;;5076848;28;20384;-85
2023/10/17 09:51:55;;;;;;;13.82;7.18;;;8.70;99.90;;;;;;5096464;28;20039;-83
2023/10/17 09:54:22;;;;;;;12.90;7.32;;;8.80;99.90;;;;;;5060123;28;20033;-84
2023/10/17 09:56:49;;;;;;;13.50;7.50;;;8.50;99.90;;;;;;5056747;28;20039;-84
2023/10/17 09:59:27;;;;;;;14.75;7.45;;;8.50;99.90;;;;;;5073329;28;20495;-85
2023/10/17 10:01:54;;;;;;;11.45;7.15;;;8.70;99.90;;;;;;5058238;28;20032;-85
2023/10/17 10:04:20;;;;;;;11.93;7.38;;;8.80;99.90;;;;;;5074602;28;20458;-85
2023/10/17 10:06:46;;;;;;;13.57;7.15;;;9.00;99.90;;;;;;5060270;28;20056;-84
2023/10/17 10:09:14;;;;;;;15.48;7.55;;;9.10;99.90;;;;;;5061235;28;20029;-85
2023/10/17 10:11:52;;;;;;;13.25;8.35;;;9.20;99.90;;;;;;5088655;28;20479;-85
2023/10/17 10:14:23;;;;;;;9.98;6.40;;;9.30;99.90;;;;;;5091313;28;20089;-84
2023/10/17 10:16:53;;;;;;;14.60;7.38;;;9.20;99.90;;;;;;5090788;28;20088;-86
2023/10/17 10:19:22;;;;;;;10.80;7.07;;;9.20;99.90;;;;;;5056356;28;20032;-84
2023/10/17 10:22:00;;;;;;;12.52;6.72;;;9.10;99.90;;;;;;5088707;28;20366;-84
2023/10/17 10:24:29;;;;;;;14.50;6.90;;;9.00;99.90;;;;;;5071592;28;20032;-85
2023/10/17 10:27:09;;;;;;;13.30;7.15;;;9.20;99.90;;;;;;5089819;28;20024;-84
2023/10/17 10:29:35;;;;;;;14.13;6.90;;;9.30;99.90;;;;;;5108192;28;20095;-84
2023/10/17 10:32:29;;;;;;;17.52;6.90;;;9.10;99.90;;;;;;5057831;28;20074;-84
2023/10/17 10:34:55;;;;;;;12.30;6.53;;;9.00;99.90;;;;;;5057262;28;20028;-85
2023/10/17 10:37:21;;;;;;;11.32;7.38;;;9.00;99.90;;;;;;5051958;28;20016;-84
2023/10/17 10:40:26;;;;;;;15.35;6.78;;;8.90;99.90;;;;;;5066595;28;20096;-85
2023/10/17 10:42:54;;;;;;;13.75;7.72;;;9.00;99.90;;;;;;5065045;28;20467;-85
2023/10/17 10:45:55;;;;;;;10.73;7.00;;;8.90;99.90;;;;;;5071660;28;20471;-85
2023/10/17 10:48:21;;;;;;;14.07;7.50;;;9.10;99.90;;;;;;5061799;28;20028;-85
2023/10/17 10:50:59;;;;;;;19.13;7.43;;;9.10;99.90;;;;;;5066553;28;20257;-85
2023/10/17 10:53:29;;;;;;;8.25;5.57;;;9.10;99.90;;;;;;5098484;28;20027;-84
2023/10/17 10:56:04;;;;;;;15.02;7.57;;;9.10;99.90;;;;;;5068107;28;20115;-85
2023/10/17 10:58:36;;;;;;;12.40;6.60;;;9.00;99.90;;;;;;5070860;28;20178;-84
2023/10/17 11:01:03;;;;;;;9.85;6.32;;;8.90;99.90;;;;;;5066039;28;20107;-84
2023/10/17 11:03:33;;;;;;;14.50;7.10;;;8.80;99.90;;;;;;5078347;28;20019;-84
2023/10/17 11:06:03;;;;;;;11.75;7.45;;;8.70;99.90;;;;;;5080047;28;20060;-85
2023/10/17 11:08:40;;;;;;;14.35;9.57;;;8.80;99.90;;;;;;5090066;28;20035;-85
2023/10/17 11:11:06;;;;;;;13.15;7.43;;;8.90;99.90;;;;;;5068185;28;20030;-85
2023/10/17 11:13:37;;;;;;;12.80;6.97;;;9.20;99.90;;;;;;5079839;28;20025;-85
2023/10/17 11:16:06;;;;;;;11.57;7.30;;;9.30;99.90;;;;;;5099717;28;20095;-85
2023/10/17 11:18:39;;;;;;;12.30;6.07;;;9.00;99.90;;;;;;5085317;28;20020;-85
2023/10/17 11:21:08;;;;;;;9.27;6.28;;;8.80;99.90;;;;;;5077059;28;20471;-84
2023/10/17 11:23:35;;;;;;;10.70;6.28;;;8.80;99.90;;;;;;5081130;28;20457;-85
2023/10/17 11:26:07;;;;;;;10.75;5.75;;;8.90;99.90;;;;;;5094645;28;20034;-85
2023/10/17 11:28:33;;;;;;;11.02;6.18;;;9.00;99.90;;;;;;5102705;28;20115;-85
2023/10/17 11:31:05;;;;;;;11.73;5.97;;;9.00;99.90;;;;;;5064807;28;20059;-84
2023/10/17 11:33:47;;;;;;;10.35;5.53;;;9.00;99.90;;;;;;5069515;28;20040;-85
2023/10/17 11:36:20;;;;;;;8.73;5.60;;;9.10;99.90;;;;;;5121299;27;20490;-85
2023/10/17 11:38:57;;;;;;;9.30;6.03;;;9.10;99.90;;;;;;5087589;28;20024;-85
2023/10/17 11:41:31;;;;;;;16.63;7.63;;;9.00;99.90;;;;;;5046829;28;20036;-85
2023/10/17 11:44:04;;;;;;;12.18;7.00;;;8.80;99.90;;;;;;5085297;28;20054;-85
2023/10/17 11:46:31;;;;;;;14.30;6.97;;;8.70;99.90;;;;;;5068798;28;20031;-85
2023/10/17 11:49:28;;;;;;;11.98;6.50;;;8.70;99.90;;;;;;5060812;28;20405;-86
2023/10/17 11:52:01;;;;;;;13.55;6.72;;;8.70;99.90;;;;;;5066878;28;20028;-84
2023/10/17 11:54:30;;;;;;;8.68;6.15;;;8.70;99.90;;;;;;5053263;28;20491;-85
2023/10/17 11:57:22;;;;;;;12.20;7.15;;;8.60;99.90;;;;;;5088569;28;20044;-85
2023/10/17 12:00:19;;;;;;;9.55;6.30;;;8.60;99.90;;;;;;5066514;28;20667;-84
2023/10/17 12:02:48;;;;;;;9.65;6.50;;;8.60;99.90;;;;;;5053908;28;20118;-84
2023/10/17 12:05:22;;;;;;;12.00;6.75;;;8.70;99.90;;;;;;5067281;28;20481;-85
2023/10/17 12:07:49;;;;;;;9.75;6.22;;;8.80;99.90;;;;;;5084642;28;20025;-85
2023/10/17 12:10:16;;;;;;;9.57;5.85;;;9.00;99.90;;;;;;5057048;28;20059;-85
2023/10/17 12:12:42;;;;;;;19.77;7.13;;;9.20;99.90;;;;;;5090855;28;20024;-85
2023/10/17 12:15:13;;;;;;;13.82;6.45;;;9.10;99.90;;;;;;5074913;28;20429;-85
2023/10/17 12:17:39;;;;;;;10.70;6.30;;;8.90;99.90;;;;;;5069541;28;20561;-85
2023/10/17 12:20:10;;;;;;;8.85;6.20;;;9.00;99.90;;;;;;5058085;28;20443;-84
2023/10/17 12:22:36;;;;;;;12.38;6.45;;;9.10;99.90;;;;;;5071535;28;20028;-85
2023/10/17 12:25:02;;;;;;;14.30;7.03;;;9.40;99.90;;;;;;5089018;28;20036;-81
2023/10/17 12:27:30;;;;;;;10.15;5.80;;;9.60;99.90;;;;;;5112485;27;20043;-86
2023/10/17 12:29:56;;;;;;;10.50;6.88;;;9.60;99.90;;;;;;5070096;28;20032;-87
2023/10/17 12:32:22;;;;;;;9.52;5.93;;;9.40;99.90;;;;;;5060775;28;20032;-85
2023/10/17 12:34:49;;;;;;;8.95;6.25;;;9.30;99.90;;;;;;5095695;28;20036;-84
2023/10/17 12:37:17;;;;;;;11.77;6.03;;;9.40;99.90;;;;;;5079789;28;20112;-83
2023/10/17 12:39:43;;;;;;;9.55;6.40;;;9.20;99.90;;;;;;5102034;28;20471;-83
2023/10/17 12:42:10;;;;;;;10.30;6.22;;;9.10;99.90;;;;;;5075368;28;20830;-83
2023/10/17 12:44:42;;;;;;;9.63;6.18;;;9.00;99.90;;;;;;5091458;28;20031;-84
2023/10/17 12:47:08;;;;;;;9.77;6.75;;;9.00;99.90;;;;;;5049247;28;20036;-84
2023/10/17 12:49:33;;;;;;;9.00;5.68;;;9.10;99.90;;;;;;5069257;28;20038;-84
2023/10/17 12:52:00;;;;;;;10.65;6.07;;;9.00;99.90;;;;;;5119571;27;20067;-84
2023/10/17 12:54:26;;;;;;;9.93;6.20;;;8.90;99.90;;;;;;5086349;28;20039;-84
2023/10/17 12:56:53;;;;;;;10.98;6.43;;;8.80;99.90;;;;;;5083778;28;20826;-84
2023/10/17 12:59:19;;;;;;;14.95;6.63;;;8.90;99.90;;;;;;5057930;28;20039;-84
2023/10/17 13:01:45;;;;;;;9.40;5.75;;;8.70;99.90;;;;;;5098468;28;20506;-84
2023/10/17 13:04:11;;;;;;;18.67;6.50;;;8.60;99.90;;;;;;5079728;28;20535;-85
2023/10/17 13:06:38;;;;;;;8.80;6.15;;;8.50;99.90;;;;;;5099772;28;20024;-84
2023/10/17 13:09:04;;;;;;;9.48;5.63;;;8.40;99.90;;;;;;5064915;28;20364;-84
2023/10/17 13:11:30;;;;;;;21.05;9.75;;;8.30;99.90;;;;;;5084394;28;20032;-83
2023/10/17 13:13:59;;;;;;;18.45;6.70;;;8.20;99.90;;;;;;5101192;28;20114;-84
2023/10/17 13:16:28;;;;;;;9.77;6.10;;;8.10;99.90;;;;;;5124172;27;20482;-84
2023/10/17 13:18:57;;;;;;;10.60;6.55;;;7.90;99.90;;;;;;5102538;28;20031;-82
2023/10/17 13:21:23;;;;;;;11.63;6.35;;;7.80;99.90;;;;;;5078496;28;20028;-84
2023/10/17 13:23:50;;;;;;;13.25;6.47;;;7.70;99.90;;;;;;5086768;28;20016;-84
2023/10/17 13:26:18;;;;;;;13.30;5.80;;;7.60;99.90;;;;;;5095217;28;20038;-84
2023/10/17 13:28:45;;;;;;;9.98;6.25;;;7.60;99.90;;;;;;5074335;28;20549;-84
2023/10/17 13:31:15;;;;;;;9.93;6.28;;;7.60;99.90;;;;;;5083755;28;20031;-84
2023/10/17 13:33:43;;;;;;;;;;;7.40;99.90;;;;;;5081054;28;20060;-84
2023/10/17 13:36:16;;;;;;;15.55;7.05;;;7.50;99.90;;;;;;5081530;28;19950;-83
2023/10/17 13:38:42;;;;;;;10.77;6.25;;;7.60;99.90;;;;;;5119138;27;20032;-84
2023/10/17 13:41:14;;;;;;;8.48;5.65;;;7.60;99.90;;;;;;5092093;28;20421;-85
2023/10/17 13:43:42;;;;;;;21.88;6.80;;;7.70;99.90;;;;;;5088555;28;20421;-84
2023/10/17 13:46:13;;;;;;;15.48;5.80;;;7.70;99.90;;;;;;5068959;28;20477;-84
2023/10/17 13:48:48;;;;;;;9.32;5.78;;;7.70;99.90;;;;;;5087117;28;20039;-84
2023/10/17 13:51:15;;;;;;;10.00;6.40;;;7.90;99.90;;;;;;5068709;28;20118;-84
2023/10/17 13:53:44;;;;;;;11.88;6.07;;;8.00;99.90;;;;;;5084042;28;20567;-84
2023/10/17 13:56:20;;;;;;;13.45;5.97;;;8.00;99.90;;;;;;5094088;28;20485;-84
2023/10/17 13:58:46;;;;;;;9.50;6.45;;;8.00;99.90;;;;;;5048547;28;20063;-85
2023/10/17 14:01:31;;;;;;;12.60;5.78;;;8.10;99.90;;;;;;5077891;28;20062;-85
2023/10/17 14:04:00;;;;;;;9.65;5.80;;;8.20;99.90;;;;;;5057692;28;20067;-84
2023/10/17 14:06:38;;;;;;;7.75;5.28;;;8.10;99.90;;;;;;5077098;28;20032;-84
2023/10/17 14:09:04;;;;;;;8.20;5.53;;;8.10;99.90;;;;;;5095201;28;20032;-84
2023/10/17 14:11:30;;;;;;;13.02;7.07;;;8.00;99.90;;;;;;5116924;27;20031;-84
2023/10/17 14:13:56;;;;;;;8.85;5.93;;;8.00;99.90;;;;;;5065883;28;20026;-84
2023/10/17 14:16:22;;;;;;;12.05;5.47;;;8.00;99.90;;;;;;5082525;28;20024;-84
2023/10/17 14:19:02;;;;;;;11.50;5.70;;;8.00;99.90;;;;;;5118381;28;20076;-84
2023/10/17 14:23:57;;;;;;;8.13;5.40;;;8.10;99.90;;;;;;5080587;28;20074;-84
2023/10/17 14:26:27;;;;;;;15.88;4.97;;;8.10;99.90;;;;;;5074846;28;20052;-85
2023/10/17 14:28:56;;;;;;;10.52;6.60;;;8.20;99.90;;;;;;5062961;28;20111;-84
2023/10/17 14:31:23;;;;;;;12.15;5.88;;;8.20;99.90;;;;;;5063160;28;20105;-84
2023/10/17 14:33:51;;;;;;;8.65;5.60;;;8.20;99.90;;;;;;5079597;28;20035;-84
2023/10/17 14:36:18;;;;;;;10.13;5.85;;;8.10;99.90;;;;;;5078245;28;20035;-84
2023/10/17 14:38:44;;;;;;;10.82;5.63;;;8.10;99.90;;;;;;5057591;28;20028;-85
2023/10/17 14:41:11;;;;;;;8.15;5.40;;;8.20;99.90;;;;;;5082601;28;20032;-84
2023/10/17 14:43:46;;;;;;;8.93;4.82;;;8.20;99.90;;;;;;5074800;28;20077;-84
2023/10/17 14:46:13;;;;;;;12.77;5.85;;;8.20;99.90;;;;;;5069703;28;20114;-85
2023/10/17 14:48:40;;;;;;;12.02;5.65;;;8.30;99.90;;;;;;5064120;28;20028;-84
2023/10/17 14:51:06;;;;;;;16.15;5.18;;;8.30;99.90;;;;;;5080417;28;20125;-84
2023/10/17 14:53:32;;;;;;;12.98;5.63;;;8.30;99.90;;;;;;5064974;28;20077;-84
2023/10/17 14:55:59;;;;;;;11.57;5.82;;;8.20;99.90;;;;;;5099503;28;20032;-84
2023/10/17 14:58:24;;;;;;;11.52;6.00;;;8.20;99.90;;;;;;5076420;28;20546;-84
2023/10/17 15:01:10;;;;;;;10.43;6.32;;;8.20;99.90;;;;;;5088903;28;20127;-84
2023/10/17 15:03:36;;;;;;;12.18;5.82;;;8.10;99.90;;;;;;5099218;28;20028;-84
2023/10/17 15:06:03;;;;;;;9.32;5.18;;;8.10;99.90;;;;;;5085183;28;20032;-84
2023/10/17 15:08:30;;;;;;;11.48;5.65;;;8.10;99.90;;;;;;5068213;28;20570;-83
2023/10/17 15:11:01;;;;;;;7.88;5.03;;;8.10;99.90;;;;;;5080021;28;20028;-84
2023/10/17 15:13:29;;;;;;;15.80;5.85;;;8.20;99.90;;;;;;5067698;28;20024;-84
2023/10/17 15:15:55;;;;;;;7.93;5.70;;;8.30;99.90;;;;;;5059483;28;20033;-83
2023/10/17 15:18:21;;;;;;;9.70;6.05;;;8.40;99.90;;;;;;5070374;28;20038;-85